createdAt,value
2018-07-02T00:01:40.701Z,71.55
2018-07-02T00:04:45.073Z,72.39
2018-07-02T00:07:49.448Z,72.66
2018-07-02T00:10:53.837Z,72.66
2018-07-02T00:13:58.257Z,73.09
2018-07-02T00:17:02.641Z,73.87
2018-07-02T00:20:08.029Z,73.79
2018-07-02T00:23:12.444Z,74.06
2018-07-02T00:26:16.825Z,73.79
2018-07-02T00:29:21.221Z,74.45
2018-07-02T00:32:25.593Z,74.61
2018-07-02T00:35:29.997Z,74.49
2018-07-02T00:38:34.381Z,74.93
2018-07-02T00:41:38.801Z,75.33
2018-07-02T00:44:43.194Z,74.78
2018-07-02T00:47:47.616Z,74.62
2018-07-02T00:50:51.946Z,75.36
2018-07-02T00:53:56.323Z,75.32
2018-07-02T00:57:00.698Z,75.04
2018-07-02T01:00:13.204Z,75.68
2018-07-02T01:03:17.588Z,75.33
2018-07-02T01:06:21.980Z,75.99
2018-07-02T01:09:26.378Z,75.30
2018-07-02T01:12:30.756Z,75.58
2018-07-02T01:15:36.001Z,76.37
2018-07-02T01:18:40.396Z,76.46
2018-07-02T01:21:44.777Z,76.53
2018-07-02T01:24:49.156Z,76.12
2018-07-02T01:27:53.517Z,76.93
2018-07-02T01:30:57.908Z,76.56
2018-07-02T01:34:02.277Z,76.70
2018-07-02T01:37:06.673Z,76.64
2018-07-02T01:40:11.035Z,77.73
2018-07-02T01:43:15.408Z,77.87
2018-07-02T01:46:19.829Z,78.19
2018-07-02T01:49:24.197Z,78.07
2018-07-02T01:52:28.586Z,78.35
2018-07-02T01:55:32.953Z,78.75
2018-07-02T01:58:37.345Z,79.06
2018-07-02T02:01:41.737Z,78.67
2018-07-02T02:04:45.854Z,78.92
2018-07-02T02:07:50.232Z,78.67
2018-07-02T02:10:54.677Z,78.73
2018-07-02T02:13:59.056Z,78.67
2018-07-02T02:17:03.469Z,79.09
2018-07-02T02:20:07.859Z,79.26
2018-07-02T02:23:12.237Z,79.56
2018-07-02T02:26:16.647Z,80.14
2018-07-02T02:29:21.016Z,79.49
2018-07-02T02:32:25.431Z,79.69
2018-07-02T02:35:29.825Z,80.00
2018-07-02T02:38:34.215Z,79.22
2018-07-02T02:41:38.673Z,80.20
2018-07-02T02:44:43.057Z,79.68
2018-07-02T02:47:47.504Z,79.77
2018-07-02T02:50:51.874Z,79.96
2018-07-02T02:53:56.281Z,79.74
2018-07-02T02:57:00.717Z,79.63
2018-07-02T03:00:05.521Z,80.01
2018-07-02T03:03:09.898Z,79.90
2018-07-02T03:06:14.290Z,79.56
2018-07-02T03:09:18.653Z,80.08
2018-07-02T03:12:23.076Z,79.63
2018-07-02T03:15:27.445Z,79.66
2018-07-02T03:18:31.828Z,80.16
2018-07-02T03:21:36.213Z,80.31
2018-07-02T03:24:40.605Z,80.44
2018-07-02T03:27:45.022Z,80.17
2018-07-02T03:30:49.467Z,80.39
2018-07-02T03:33:53.901Z,79.84
2018-07-02T03:36:58.304Z,80.83
2018-07-02T03:40:02.701Z,80.63
2018-07-02T03:43:07.101Z,80.37
2018-07-02T03:46:11.473Z,79.82
2018-07-02T03:49:15.881Z,79.82
2018-07-02T03:52:20.290Z,80.08
2018-07-02T03:55:24.721Z,80.40
2018-07-02T03:58:29.115Z,80.08
2018-07-02T04:01:33.521Z,80.65
2018-07-02T04:04:37.913Z,80.75
2018-07-02T04:07:42.294Z,80.98
2018-07-02T04:10:46.765Z,81.76
2018-07-02T04:13:51.184Z,81.64
2018-07-02T04:16:55.689Z,81.63
2018-07-02T04:20:00.823Z,82.29
2018-07-02T04:23:05.354Z,81.09
2018-07-02T04:26:09.865Z,81.04
2018-07-02T04:29:14.281Z,80.53
2018-07-02T04:32:18.910Z,81.02
2018-07-02T04:35:23.309Z,81.41
2018-07-02T04:38:27.808Z,80.91
2018-07-02T04:41:32.219Z,79.85
2018-07-02T04:44:36.361Z,79.69
2018-07-02T04:47:41.029Z,79.46
2018-07-02T04:50:45.417Z,79.59
2018-07-02T04:53:49.944Z,79.39
2018-07-02T04:56:54.327Z,78.67
2018-07-02T04:59:59.010Z,79.06
2018-07-02T05:03:03.409Z,78.76
2018-07-02T05:06:08.505Z,77.84
2018-07-02T05:09:13.002Z,77.95
2018-07-02T05:12:17.405Z,76.90
2018-07-02T05:15:21.806Z,75.69
2018-07-02T05:18:26.249Z,75.03
2018-07-02T05:21:30.676Z,74.54
2018-07-02T05:24:35.056Z,72.16
2018-07-02T05:27:39.452Z,71.48
2018-07-02T05:30:43.850Z,68.19
2018-07-02T05:33:48.264Z,69.09
2018-07-02T05:36:52.806Z,68.36
2018-07-02T05:39:57.232Z,66.90
2018-07-02T05:43:01.734Z,65.58
2018-07-02T05:46:06.162Z,68.19
2018-07-02T05:49:10.550Z,68.22
2018-07-02T05:52:14.940Z,67.61
2018-07-02T05:55:19.361Z,66.81
2018-07-02T05:58:23.748Z,65.45
2018-07-02T06:01:28.210Z,63.00
2018-07-02T06:04:32.598Z,62.36
2018-07-02T06:07:37.009Z,59.03
2018-07-02T06:10:41.393Z,60.94
2018-07-02T06:13:45.808Z,58.35
2018-07-02T06:16:50.226Z,59.18
2018-07-02T06:19:54.691Z,57.12
2018-07-02T06:22:59.050Z,58.95
2018-07-02T06:26:03.470Z,55.87
2018-07-02T06:29:07.899Z,54.95
2018-07-02T06:32:12.281Z,53.61
2018-07-02T06:35:16.689Z,52.40
2018-07-02T06:38:21.070Z,53.03
2018-07-02T06:41:25.500Z,51.73
2018-07-02T06:44:30.629Z,51.08
2018-07-02T06:47:35.017Z,51.22
2018-07-02T06:50:39.452Z,49.83
2018-07-02T06:53:43.853Z,49.27
2018-07-02T06:56:48.371Z,51.74
2018-07-02T06:59:52.764Z,48.60
2018-07-02T07:02:57.145Z,46.82
2018-07-02T07:06:01.550Z,48.04
2018-07-02T07:09:09.200Z,48.89
2018-07-02T07:12:13.585Z,49.60
2018-07-02T07:15:17.969Z,48.79
2018-07-02T07:18:22.111Z,48.41
2018-07-02T07:21:26.513Z,47.82
2018-07-02T07:24:30.908Z,47.83
2018-07-02T07:27:35.300Z,46.31
2018-07-02T07:30:39.731Z,45.59
2018-07-02T07:33:44.122Z,45.93
2018-07-02T07:36:48.521Z,45.43
2018-07-02T07:39:52.931Z,46.60
2018-07-02T07:42:57.332Z,44.95
2018-07-02T07:46:01.713Z,45.82
2018-07-02T07:49:06.227Z,46.60
2018-07-02T07:52:10.633Z,46.69
2018-07-02T07:55:14.761Z,45.56
2018-07-02T07:58:19.135Z,45.84
2018-07-02T08:01:23.538Z,44.70
2018-07-02T08:04:27.917Z,44.23
2018-07-02T08:07:32.321Z,44.24
2018-07-02T08:10:36.753Z,44.63
2018-07-02T08:13:41.169Z,43.66
2018-07-02T08:16:45.543Z,44.13
2018-07-02T08:19:49.904Z,43.77
2018-07-02T08:22:54.282Z,42.45
2018-07-02T08:25:58.670Z,43.81
2018-07-02T08:29:02.821Z,43.72
2018-07-02T08:32:07.286Z,42.19
2018-07-02T08:35:11.683Z,42.36
2018-07-02T08:38:16.073Z,41.72
2018-07-02T08:41:20.477Z,39.92
2018-07-02T08:44:24.884Z,39.77
2018-07-02T08:47:29.000Z,41.03
2018-07-02T08:50:33.374Z,39.27
2018-07-02T08:53:37.762Z,39.56
2018-07-02T08:56:42.433Z,37.62
2018-07-02T08:59:46.765Z,39.45
2018-07-02T09:02:51.181Z,40.53
2018-07-02T09:05:55.573Z,39.96
2018-07-02T09:08:59.986Z,40.33
2018-07-02T09:12:04.445Z,40.40
2018-07-02T09:15:08.819Z,38.23
2018-07-02T09:18:13.173Z,37.39
2018-07-02T09:21:17.593Z,35.95
2018-07-02T09:24:21.924Z,36.68
2018-07-02T09:27:26.322Z,37.71
2018-07-02T09:30:30.706Z,36.54
2018-07-02T09:33:35.129Z,36.98
2018-07-02T09:36:39.924Z,38.33
2018-07-02T09:39:44.300Z,36.92
2018-07-02T09:42:48.701Z,35.95
2018-07-02T09:45:53.099Z,37.78
2018-07-02T09:48:57.509Z,34.95
2018-07-02T09:52:01.882Z,36.97
2018-07-02T09:55:06.429Z,37.55
2018-07-02T09:58:10.850Z,36.11
2018-07-02T10:01:15.260Z,37.37
2018-07-02T10:04:19.637Z,33.62
2018-07-02T10:07:24.044Z,33.78
2018-07-02T10:10:28.462Z,33.37
2018-07-02T10:13:32.866Z,34.95
2018-07-02T10:16:37.385Z,33.38
2018-07-02T10:19:41.789Z,34.77
2018-07-02T10:22:46.215Z,36.64
2018-07-02T10:25:50.607Z,36.30
2018-07-02T10:28:55.078Z,37.65
2018-07-02T10:31:59.502Z,37.34
2018-07-02T10:35:03.953Z,38.50
2018-07-02T10:38:08.321Z,37.03
2018-07-02T10:41:12.733Z,36.13
2018-07-02T10:44:17.078Z,35.37
2018-07-02T10:47:21.497Z,35.44
2018-07-02T10:50:25.907Z,34.25
2018-07-02T10:53:30.268Z,35.81
2018-07-02T10:56:34.686Z,35.95
2018-07-02T10:59:39.074Z,34.96
2018-07-02T11:02:43.245Z,34.82
2018-07-02T11:05:47.634Z,34.53
2018-07-02T11:08:52.023Z,34.41
2018-07-02T11:11:56.402Z,34.81
2018-07-02T11:15:01.165Z,34.41
2018-07-02T11:18:05.689Z,34.74
2018-07-02T11:21:10.084Z,35.41
2018-07-02T11:24:14.985Z,33.29
2018-07-02T11:27:19.361Z,33.21
2018-07-02T11:30:23.788Z,32.86
2018-07-02T11:33:28.213Z,31.32
2018-07-02T11:36:32.621Z,32.55
2018-07-02T11:39:37.030Z,32.71
2018-07-02T11:42:41.418Z,32.49
2018-07-02T11:45:45.841Z,33.92
2018-07-02T11:48:50.246Z,32.32
2018-07-02T11:51:54.381Z,32.39
2018-07-02T11:54:58.841Z,32.51
2018-07-02T11:58:03.275Z,30.84
2018-07-02T12:01:07.768Z,31.28
2018-07-02T12:04:12.163Z,32.21
2018-07-02T12:07:16.569Z,31.85
2018-07-02T12:10:20.991Z,29.48
2018-07-02T12:13:25.377Z,30.18
2018-07-02T12:16:29.765Z,30.38
2018-07-02T12:19:34.425Z,31.51
2018-07-02T12:22:38.804Z,32.05
2018-07-02T12:25:43.165Z,30.64
2018-07-02T12:28:47.604Z,32.38
2018-07-02T12:31:52.075Z,31.55
2018-07-02T12:34:56.461Z,31.90
2018-07-02T12:38:00.828Z,31.42
2018-07-02T12:41:05.236Z,32.83
2018-07-02T12:44:10.596Z,30.47
2018-07-02T12:47:14.961Z,31.15
2018-07-02T12:50:19.405Z,30.00
2018-07-02T12:53:23.798Z,30.40
2018-07-02T12:56:28.170Z,30.32
2018-07-02T12:59:32.529Z,29.70
2018-07-02T13:02:36.987Z,30.70
2018-07-02T13:05:41.394Z,30.10
2018-07-02T13:08:45.805Z,31.11
2018-07-02T13:11:50.152Z,30.83
2018-07-02T13:14:54.546Z,31.29
2018-07-02T13:17:59.006Z,29.78
2018-07-02T13:21:03.394Z,29.36
2018-07-02T13:24:08.091Z,30.09
2018-07-02T13:27:12.485Z,29.34
2018-07-02T13:30:16.963Z,29.39
2018-07-02T13:33:21.333Z,28.90
2018-07-02T13:36:25.816Z,28.67
2018-07-02T13:39:30.170Z,29.19
2018-07-02T13:42:34.554Z,28.65
2018-07-02T13:45:39.017Z,28.31
2018-07-02T13:48:43.537Z,30.02
2018-07-02T13:51:47.933Z,28.80
2018-07-02T13:54:52.320Z,28.98
2018-07-02T13:57:56.739Z,29.39
2018-07-02T14:01:01.184Z,29.97
2018-07-02T14:04:05.686Z,29.98
2018-07-02T14:07:10.082Z,28.74
2018-07-02T14:10:14.529Z,28.62
2018-07-02T14:13:18.929Z,29.12
2018-07-02T14:16:23.347Z,31.04
2018-07-02T14:19:27.700Z,33.88
2018-07-02T14:22:32.072Z,34.21
2018-07-02T14:25:36.191Z,32.16
2018-07-02T14:28:40.582Z,34.48
2018-07-02T14:31:44.982Z,35.46
2018-07-02T14:34:49.386Z,35.32
2018-07-02T14:37:53.861Z,33.55
2018-07-02T14:40:58.243Z,33.92
2018-07-02T14:44:02.626Z,33.90
2018-07-02T14:47:06.768Z,33.55
2018-07-02T14:50:11.125Z,34.80
2018-07-02T14:53:15.516Z,34.43
2018-07-02T14:56:19.890Z,32.52
2018-07-02T14:59:24.273Z,33.61
2018-07-02T15:02:28.948Z,33.66
2018-07-02T15:05:33.350Z,32.51
2018-07-02T15:08:37.725Z,32.99
2018-07-02T15:11:42.843Z,31.31
2018-07-02T15:14:47.200Z,30.68
2018-07-02T15:17:51.570Z,30.43
2018-07-02T15:20:55.966Z,30.96
2018-07-02T15:24:00.398Z,31.47
2018-07-02T15:27:04.814Z,29.21
2018-07-02T15:30:09.192Z,28.88
2018-07-02T15:33:13.555Z,30.34
2018-07-02T15:36:17.918Z,30.03
2018-07-02T15:39:22.539Z,29.44
2018-07-02T15:42:26.632Z,28.77
2018-07-02T15:45:31.210Z,28.49
2018-07-02T15:48:35.621Z,29.79
2018-07-02T15:51:40.167Z,29.94
2018-07-02T15:54:44.628Z,29.23
2018-07-02T15:57:49.004Z,29.46
2018-07-02T16:00:53.455Z,30.30
2018-07-02T16:03:57.987Z,31.22
2018-07-02T16:07:02.446Z,31.51
2018-07-02T16:10:06.881Z,31.52
2018-07-02T16:13:11.289Z,31.80
2018-07-02T16:16:15.676Z,33.37
2018-07-02T16:19:20.097Z,33.58
2018-07-02T16:22:24.533Z,34.80
2018-07-02T16:25:28.922Z,35.17
2018-07-02T16:28:33.348Z,34.97
2018-07-02T16:31:37.744Z,35.71
2018-07-02T16:34:42.384Z,36.08
2018-07-02T16:37:46.801Z,35.82
2018-07-02T16:40:51.189Z,36.66
2018-07-02T16:43:55.337Z,37.89
2018-07-02T16:46:59.770Z,38.40
2018-07-02T16:50:04.233Z,37.73
2018-07-02T16:53:08.716Z,36.76
2018-07-02T16:56:13.148Z,37.64
2018-07-02T16:59:17.553Z,38.14
2018-07-02T17:02:21.976Z,38.19
2018-07-02T17:05:26.378Z,38.39
2018-07-02T17:08:30.842Z,38.67
2018-07-02T17:11:35.220Z,39.07
2018-07-02T17:14:39.336Z,40.23
2018-07-02T17:17:43.865Z,39.97
2018-07-02T17:20:48.294Z,39.76
2018-07-02T17:23:52.689Z,38.95
2018-07-02T17:26:57.106Z,38.22
2018-07-02T17:30:01.506Z,39.10
2018-07-02T17:33:06.066Z,40.00
2018-07-02T17:36:10.231Z,41.38
2018-07-02T17:39:14.804Z,41.30
2018-07-02T17:42:19.202Z,41.29
2018-07-02T17:45:23.586Z,42.03
2018-07-02T17:48:28.001Z,41.63
2018-07-02T17:51:32.378Z,42.03
2018-07-02T17:54:36.813Z,41.83
2018-07-02T17:57:41.205Z,40.37
2018-07-02T18:00:45.613Z,40.69
2018-07-02T18:03:50.009Z,40.86
2018-07-02T18:06:54.411Z,42.35
2018-07-02T18:09:58.865Z,42.52
2018-07-02T18:13:05.913Z,42.86
2018-07-02T18:16:10.359Z,43.96
2018-07-02T18:19:14.783Z,44.02
2018-07-02T18:22:19.157Z,45.74
2018-07-02T18:25:23.558Z,45.72
2018-07-02T18:28:27.949Z,46.41
2018-07-02T18:31:32.365Z,46.26
2018-07-02T18:34:36.802Z,45.98
2018-07-02T18:37:41.173Z,46.30
2018-07-02T18:40:45.553Z,45.35
2018-07-02T18:43:49.909Z,45.80
2018-07-02T18:46:54.330Z,45.01
2018-07-02T18:49:58.732Z,43.53
2018-07-02T18:53:03.122Z,42.02
2018-07-02T18:56:07.518Z,42.01
2018-07-02T18:59:11.910Z,41.88
2018-07-02T19:02:16.323Z,40.71
2018-07-02T19:05:20.708Z,41.22
2018-07-02T19:08:25.897Z,41.61
2018-07-02T19:11:30.297Z,41.97
2018-07-02T19:14:34.677Z,41.87
2018-07-02T19:17:39.125Z,41.72
2018-07-02T19:20:43.508Z,41.85
2018-07-02T19:23:47.870Z,42.57
2018-07-02T19:26:52.292Z,42.98
2018-07-02T19:29:56.749Z,42.65
2018-07-02T19:33:01.170Z,43.60
2018-07-02T19:36:05.734Z,43.66
2018-07-02T19:39:13.814Z,44.57
2018-07-02T19:42:18.229Z,44.85
2018-07-02T19:45:22.626Z,44.83
2018-07-02T19:48:27.068Z,45.18
2018-07-02T19:51:31.449Z,45.99
2018-07-02T19:54:35.837Z,46.90
2018-07-02T19:57:40.215Z,47.06
2018-07-02T20:00:44.606Z,47.76
2018-07-02T20:03:49.013Z,47.50
2018-07-02T20:06:53.544Z,48.15
2018-07-02T20:09:57.821Z,48.57
2018-07-02T20:13:02.229Z,48.85
2018-07-02T20:16:06.661Z,49.38
2018-07-02T20:19:11.122Z,50.11
2018-07-02T20:22:15.474Z,50.81
2018-07-02T20:25:19.858Z,50.58
2018-07-02T20:28:24.227Z,51.83
2018-07-02T20:31:28.596Z,52.10
2018-07-02T20:34:32.983Z,52.57
2018-07-02T20:37:37.350Z,52.83
2018-07-02T20:40:41.801Z,54.00
2018-07-02T20:43:46.178Z,54.01
2018-07-02T20:46:50.616Z,54.52
2018-07-02T20:49:54.976Z,55.13
2018-07-02T20:52:59.371Z,55.68
2018-07-02T20:56:03.813Z,55.64
2018-07-02T20:59:08.465Z,56.07
2018-07-02T21:02:12.826Z,56.47
2018-07-02T21:05:17.226Z,56.10
2018-07-02T21:08:21.633Z,56.44
2018-07-02T21:11:26.002Z,56.62
2018-07-02T21:14:30.383Z,56.41
2018-07-02T21:17:34.760Z,56.38
2018-07-02T21:20:39.166Z,57.42
2018-07-02T21:23:43.536Z,57.07
2018-07-02T21:26:47.922Z,57.86
2018-07-02T21:29:52.296Z,57.52
2018-07-02T21:32:56.705Z,57.50
2018-07-02T21:36:01.093Z,57.32
2018-07-02T21:39:11.506Z,58.00
2018-07-02T21:42:15.943Z,58.26
2018-07-02T21:45:20.325Z,58.67
2018-07-02T21:48:24.736Z,58.66
2018-07-02T21:51:29.210Z,58.46
2018-07-02T21:54:33.577Z,59.10
2018-07-02T21:57:37.967Z,58.43
2018-07-02T22:00:45.348Z,59.37
2018-07-02T22:03:50.310Z,59.61
2018-07-02T22:06:54.773Z,59.96
2018-07-02T22:09:59.175Z,59.94
2018-07-02T22:13:03.948Z,60.06
2018-07-02T22:16:08.355Z,60.14
2018-07-02T22:19:12.717Z,59.87
2018-07-02T22:22:17.117Z,59.93
2018-07-02T22:25:21.578Z,60.37
2018-07-02T22:28:25.889Z,60.81
2018-07-02T22:31:30.274Z,60.87
2018-07-02T22:34:34.702Z,60.68
2018-07-02T22:37:39.057Z,61.20
2018-07-02T22:40:43.418Z,60.98
2018-07-02T22:43:47.834Z,61.34
2018-07-02T22:46:52.189Z,61.25
2018-07-02T22:49:56.600Z,61.33
2018-07-02T22:53:00.976Z,61.02
2018-07-02T22:56:06.374Z,61.42
2018-07-02T22:59:10.773Z,61.49
2018-07-02T23:02:15.162Z,61.49
2018-07-02T23:05:19.550Z,62.02
2018-07-02T23:08:24.271Z,62.30
2018-07-02T23:11:28.671Z,61.94
2018-07-02T23:14:33.086Z,62.03
2018-07-02T23:17:37.477Z,62.63
2018-07-02T23:20:41.892Z,63.13
2018-07-02T23:23:46.260Z,62.78
2018-07-02T23:26:50.805Z,63.63
2018-07-02T23:29:55.191Z,63.05
2018-07-02T23:32:59.866Z,63.53
2018-07-02T23:36:04.286Z,63.34
2018-07-02T23:39:11.884Z,63.94
2018-07-02T23:52:54.412Z,65.06
2018-07-02T23:55:58.809Z,64.54
2018-07-02T23:59:03.304Z,64.35
